Time;durP1;ratioP1;P1;durP2;ratioP2;P2;SDS_P1;SDS_P2;PMS_P1;PMS_P2;Temp;Humidity;BMP_temperature;BMP_pressure;BME280_temperature;BME280_humidity;BME280_pressure;Samples;Min_cycle;Max_cycle;Signal;HPM_P1;HPM_P2
2022/03/01 00:02:05;;;;;;;4.60;3.22;;;;;;;-3.79;71.50;93974.78;5047661;28;20021;-43
2022/03/01 00:04:30;;;;;;;4.25;3.25;;;;;;;-3.79;71.25;93977.47;5048552;28;20493;-44
2022/03/01 00:06:56;;;;;;;10.15;5.38;;;;;;;-3.69;71.11;93984.38;5048256;28;20079;-42
2022/03/01 00:09:22;;;;;;;10.77;5.18;;;;;;;-3.54;69.85;93969.16;5048186;28;20025;-42
2022/03/01 00:11:47;;;;;;;12.80;6.88;;;;;;;-3.49;69.62;93974.72;5048177;28;20021;-42
2022/03/01 00:14:13;;;;;;;16.02;7.38;;;;;;;-3.49;69.62;93973.97;5048315;28;20031;-42
2022/03/01 00:16:38;;;;;;;11.13;6.53;;;;;;;-3.40;69.43;93961.22;5048045;28;20021;-42
2022/03/01 00:19:04;;;;;;;6.88;3.88;;;;;;;-3.21;70.06;93972.84;5048323;28;20081;-42
2022/03/01 00:21:29;;;;;;;5.15;3.55;;;;;;;-3.41;70.94;93934.69;5047986;28;20021;-42
2022/03/01 00:23:55;;;;;;;3.05;2.40;;;;;;;-3.22;69.48;93966.66;5048352;28;20017;-43
2022/03/01 00:26:21;;;;;;;3.72;2.40;;;;;;;-3.47;69.98;93931.09;5047991;28;20039;-42
2022/03/01 00:28:47;;;;;;;7.10;3.35;;;;;;;-3.45;70.85;93953.75;5048005;28;20024;-42
2022/03/01 00:31:12;;;;;;;8.60;5.47;;;;;;;-3.69;70.94;93957.41;5048161;28;20033;-42
2022/03/01 00:33:38;;;;;;;8.45;5.63;;;;;;;-3.52;71.08;93950.56;5047616;28;20060;-42
2022/03/01 00:36:04;;;;;;;4.35;3.08;;;;;;;-3.41;70.50;93948.19;5047821;28;20077;-42
2022/03/01 00:38:29;;;;;;;7.32;4.57;;;;;;;-3.87;71.22;93958.09;5048085;28;20021;-43
2022/03/01 00:40:55;;;;;;;6.13;4.43;;;;;;;-3.82;70.94;93944.03;5047678;27;20575;-43
2022/03/01 00:43:21;;;;;;;8.20;4.57;;;;;;;-3.73;71.72;93943.31;5046822;28;20550;-42
2022/03/01 00:45:48;;;;;;;7.45;4.15;;;;;;;-4.05;71.52;93939.16;5047685;28;20025;-42
2022/03/01 00:48:14;;;;;;;6.30;3.83;;;;;;;-4.04;72.75;93940.66;5047659;28;20021;-42
2022/03/01 00:50:39;;;;;;;5.90;4.15;;;;;;;-3.95;71.45;93940.69;5047916;28;20103;-42
2022/03/01 00:53:05;;;;;;;6.47;3.85;;;;;;;-3.93;71.71;93935.59;5047788;28;20463;-43
2022/03/01 00:55:31;;;;;;;8.50;4.50;;;;;;;-3.96;70.43;93926.44;5047487;28;20029;-42
2022/03/01 00:57:56;;;;;;;7.22;4.28;;;;;;;-4.01;70.83;93926.28;5047508;28;20021;-41
2022/03/01 01:00:22;;;;;;;8.65;4.32;;;;;;;-3.91;71.76;93925.13;5047742;28;20073;-42
2022/03/01 01:02:48;;;;;;;8.00;4.82;;;;;;;-3.79;72.38;93923.50;5047755;28;20023;-43
2022/03/01 01:05:14;;;;;;;10.88;6.65;;;;;;;-3.89;72.70;93920.78;5047691;28;20024;-43
2022/03/01 01:07:39;;;;;;;29.42;11.57;;;;;;;-3.92;73.38;93921.66;5047348;28;20025;-42
2022/03/01 01:10:06;;;;;;;17.48;8.40;;;;;;;-4.00;73.49;93925.84;5047562;28;20055;-43
2022/03/01 01:12:32;;;;;;;15.85;7.75;;;;;;;-4.24;72.99;93915.97;5047082;28;20025;-42
2022/03/01 01:14:58;;;;;;;8.52;4.97;;;;;;;-4.10;72.66;93918.91;5046349;28;20101;-42
2022/03/01 01:17:23;;;;;;;9.18;4.57;;;;;;;-4.29;73.01;93928.13;5047248;28;20486;-43
2022/03/01 01:19:49;;;;;;;7.25;4.43;;;;;;;-4.39;74.06;93920.41;5047153;28;20077;-43
2022/03/01 01:24:58;;;;;;;8.32;5.53;;;;;;;-4.06;72.19;93924.16;5047186;28;20081;-42
2022/03/01 01:27:24;;;;;;;10.50;6.35;;;;;;;-4.10;71.82;93923.56;5046986;28;20506;-42
2022/03/01 01:29:49;;;;;;;11.32;6.20;;;;;;;-4.15;71.85;93924.13;5047061;28;20021;-43
2022/03/01 01:32:15;;;;;;;8.88;5.43;;;;;;;-4.55;72.30;93924.09;5047278;28;20032;-43
2022/03/01 01:34:40;;;;;;;9.18;5.82;;;;;;;-4.27;71.60;93924.97;5046951;28;20542;-43
2022/03/01 01:37:05;;;;;;;7.97;5.55;;;;;;;-4.31;71.81;93927.06;5047309;28;20025;-43
2022/03/01 01:39:31;;;;;;;8.25;5.53;;;;;;;-4.22;71.45;93924.41;5046919;28;20536;-43
2022/03/01 01:41:56;;;;;;;22.48;12.40;;;;;;;-4.27;71.46;93923.03;5046646;28;20028;-42
2022/03/01 01:44:22;;;;;;;24.42;13.80;;;;;;;-4.30;71.44;93931.25;5047179;28;20100;-42
2022/03/01 01:46:47;;;;;;;20.88;11.18;;;;;;;-4.45;71.43;93927.56;5045521;28;20021;-42
2022/03/01 01:49:13;;;;;;;11.88;7.07;;;;;;;-4.53;71.52;93924.38;5046806;28;20029;-42
2022/03/01 01:51:38;;;;;;;25.42;14.48;;;;;;;-4.46;71.24;93921.41;5047032;28;20031;-42
2022/03/01 01:54:04;;;;;;;21.67;14.05;;;;;;;-4.53;71.68;93916.31;5046784;28;20395;-41
2022/03/01 01:56:30;;;;;;;20.20;11.23;;;;;;;-4.45;72.62;93916.78;5046660;28;20025;-42
2022/03/01 01:58:56;;;;;;;12.60;8.63;;;;;;;-4.48;71.56;93920.38;5046710;28;20089;-42
2022/03/01 02:01:21;;;;;;;12.60;8.50;;;;;;;-4.86;73.27;93926.72;5046666;28;20032;-42
2022/03/01 02:03:47;;;;;;;14.00;7.93;;;;;;;-4.94;72.68;93887.03;5046931;28;20028;-42
2022/03/01 02:06:12;;;;;;;7.60;5.45;;;;;;;-4.54;71.42;93911.34;5046546;28;20387;-42
2022/03/01 02:08:37;;;;;;;12.55;7.43;;;;;;;-4.76;73.21;93912.13;5046635;28;20051;-42
2022/03/01 02:11:03;;;;;;;13.07;7.43;;;;;;;-4.84;73.04;93918.19;5046524;28;20024;-42
2022/03/01 02:13:28;;;;;;;10.18;6.47;;;;;;;-4.86;72.04;93910.56;5046763;28;20021;-43
2022/03/01 02:15:55;;;;;;;11.15;6.50;;;;;;;-4.74;71.88;93911.66;5046462;28;20025;-43
2022/03/01 02:18:21;;;;;;;15.02;9.27;;;;;;;-4.73;72.47;93905.09;5095143;27;20076;-43
2022/03/01 02:20:47;;;;;;;26.85;13.27;;;;;;;-4.64;71.98;93905.94;5151309;27;20109;-42
2022/03/01 02:23:13;;;;;;;28.50;14.07;;;;;;;-4.59;73.40;93903.84;5151209;27;20015;-42
2022/03/01 02:25:38;;;;;;;20.50;10.13;;;;;;;-5.20;72.99;93901.78;5153412;27;20018;-42
2022/03/01 02:28:04;;;;;;;20.33;10.45;;;;;;;-5.14;72.92;93889.28;5154874;27;20518;-43
2022/03/01 02:30:30;;;;;;;17.25;9.80;;;;;;;-5.12;72.81;93893.03;5081096;27;20032;-42
2022/03/01 02:32:55;;;;;;;19.85;9.25;;;;;;;-5.14;73.34;93891.97;5049674;28;20032;-42
2022/03/01 02:35:21;;;;;;;14.82;6.70;;;;;;;-5.05;72.90;93902.81;5049686;28;20035;-42
2022/03/01 02:37:46;;;;;;;8.85;5.35;;;;;;;-5.03;73.36;93897.72;5050013;28;20017;-42
2022/03/01 02:40:12;;;;;;;14.90;9.07;;;;;;;-5.10;73.25;93892.59;5049613;28;20146;-42
2022/03/01 02:42:38;;;;;;;27.70;10.80;;;;;;;-5.23;73.49;93887.25;5049894;28;20395;-43
2022/03/01 02:45:06;;;;;;;14.75;6.88;;;;;;;-5.38;73.24;93887.00;5049609;28;20085;-42
2022/03/01 02:47:31;;;;;;;13.70;7.03;;;;;;;-5.25;72.84;93881.56;5049824;28;20029;-43
2022/03/01 02:49:57;;;;;;;10.77;6.10;;;;;;;-5.37;73.42;93885.03;5049748;28;20525;-42
2022/03/01 02:52:22;;;;;;;19.60;8.90;;;;;;;-5.22;72.92;93875.31;5049339;28;20017;-42
2022/03/01 02:54:48;;;;;;;33.95;16.08;;;;;;;-5.21;72.67;93868.72;5049729;28;20021;-43
2022/03/01 02:57:13;;;;;;;42.53;17.00;;;;;;;-5.21;71.77;93865.28;5049711;28;20486;-41
2022/03/01 02:59:39;;;;;;;16.77;10.13;;;;;;;-5.44;72.06;93858.41;5049601;28;20516;-42
2022/03/01 03:02:04;;;;;;;26.90;14.25;;;;;;;-5.43;73.03;93855.25;5049597;28;20028;-43
2022/03/01 03:04:30;;;;;;;37.42;16.80;;;;;;;-5.46;72.68;93841.94;5049531;28;20063;-42
2022/03/01 03:06:56;;;;;;;34.45;16.88;;;;;;;-5.56;74.23;93840.34;5049557;28;20025;-42
2022/03/01 03:09:22;;;;;;;24.10;11.82;;;;;;;-5.67;73.31;93813.06;5049166;28;20025;-42
2022/03/01 03:11:47;;;;;;;28.15;13.60;;;;;;;-5.50;73.36;93831.28;5049463;28;20100;-42
2022/03/01 03:14:13;;;;;;;20.17;11.88;;;;;;;-5.39;73.68;93830.91;5049050;28;20021;-42
2022/03/01 03:16:38;;;;;;;28.15;14.57;;;;;;;-5.36;74.37;93835.44;5049135;28;20048;-43
2022/03/01 03:19:04;;;;;;;15.43;8.35;;;;;;;-5.27;74.18;93840.13;5128740;27;20014;-43
2022/03/01 03:21:29;;;;;;;13.48;6.68;;;;;;;-5.29;74.88;93835.19;5154055;27;20015;-42
2022/03/01 03:23:55;;;;;;;22.27;10.63;;;;;;;-5.70;73.81;93838.16;5154028;27;20026;-42
2022/03/01 03:26:20;;;;;;;20.05;8.27;;;;;;;-5.65;72.34;93824.16;5097913;27;20032;-42
2022/03/01 03:28:46;;;;;;;14.15;7.13;;;;;;;-5.58;72.62;93840.03;5049073;28;20033;-42
2022/03/01 03:31:12;;;;;;;13.48;8.30;;;;;;;-5.64;72.81;93845.22;5049112;28;20058;-42
2022/03/01 03:33:38;;;;;;;20.98;10.23;;;;;;;-5.67;72.62;93856.84;5049009;28;20107;-42
2022/03/01 03:36:04;;;;;;;15.80;8.02;;;;;;;-5.59;72.55;93865.44;5048109;28;20551;-42
2022/03/01 03:38:29;;;;;;;16.15;7.25;;;;;;;-5.74;74.80;93864.41;5048440;28;20025;-43
2022/03/01 03:40:54;;;;;;;13.45;5.63;;;;;;;-5.66;74.41;93866.44;5048387;28;20025;-42
2022/03/01 03:43:20;;;;;;;14.13;5.32;;;;;;;-5.64;74.78;93876.75;5048639;28;20021;-42
2022/03/01 03:45:46;;;;;;;6.63;4.45;;;;;;;-5.65;75.70;93875.25;5048904;28;20025;-43
2022/03/01 03:48:11;;;;;;;7.57;4.03;;;;;;;-5.56;74.86;93880.69;5048858;28;20064;-42
2022/03/01 03:50:37;;;;;;;11.43;7.47;;;;;;;-5.96;75.12;93891.28;5048871;28;20044;-42
2022/03/01 03:53:02;;;;;;;13.35;7.68;;;;;;;-5.81;74.85;93888.84;5048414;28;20029;-41
2022/03/01 03:55:28;;;;;;;13.05;7.97;;;;;;;-5.71;73.46;93885.81;5048465;28;20064;-43
2022/03/01 03:57:54;;;;;;;12.68;5.10;;;;;;;-5.97;74.07;93884.38;5048377;28;20029;-42
2022/03/01 04:00:20;;;;;;;8.20;5.18;;;;;;;-5.92;75.53;93896.53;5048706;28;20036;-42
2022/03/01 04:02:47;;;;;;;12.15;5.72;;;;;;;-5.75;75.63;93895.94;5048677;28;20032;-42
2022/03/01 04:05:14;;;;;;;21.33;9.32;;;;;;;-5.61;75.85;93898.13;5048253;28;20020;-42
2022/03/01 04:07:40;;;;;;;24.13;11.48;;;;;;;-5.47;74.18;93895.00;5048610;28;20128;-42
2022/03/01 04:10:07;;;;;;;11.80;6.72;;;;;;;-5.39;74.30;93892.81;5046999;28;20497;-42
2022/03/01 04:12:33;;;;;;;8.38;4.13;;;;;;;-5.20;74.36;93893.72;5046901;28;20060;-42
2022/03/01 04:14:58;;;;;;;10.00;6.90;;;;;;;-5.30;75.04;93897.50;5048161;28;20093;-43
2022/03/01 04:17:23;;;;;;;16.00;7.60;;;;;;;-5.29;74.25;93893.63;5055404;27;20067;-42
2022/03/01 04:19:49;;;;;;;14.25;7.13;;;;;;;-5.32;73.51;93886.44;5152894;27;20026;-43
2022/03/01 04:22:14;;;;;;;9.75;6.45;;;;;;;-5.20;73.12;93883.72;5111932;27;20033;-42
2022/03/01 04:24:40;;;;;;;26.65;12.40;;;;;;;-5.14;73.10;93883.88;5048320;28;20036;-42
2022/03/01 04:27:05;;;;;;;19.17;10.05;;;;;;;-5.16;73.57;93889.72;5047790;28;20544;-42
2022/03/01 04:29:31;;;;;;;17.95;10.13;;;;;;;-5.53;73.49;93893.28;5048209;28;20032;-43
2022/03/01 04:31:56;;;;;;;13.23;8.27;;;;;;;-5.55;73.50;93898.34;5047943;28;20029;-43
2022/03/01 04:34:22;;;;;;;38.50;19.05;;;;;;;-5.37;73.03;93893.13;5047808;28;20016;-42
2022/03/01 04:36:47;;;;;;;26.55;14.18;;;;;;;-5.48;73.79;93890.78;5047897;28;20413;-41
2022/03/01 04:39:13;;;;;;;20.25;13.30;;;;;;;-5.32;73.54;93891.81;5047753;28;20021;-42
2022/03/01 04:41:38;;;;;;;28.30;16.33;;;;;;;-5.35;73.60;93884.63;5047415;28;20020;-43
2022/03/01 04:44:05;;;;;;;66.47;31.35;;;;;;;-5.50;74.30;93889.75;5048016;28;20029;-42
2022/03/01 04:46:31;;;;;;;48.97;23.45;;;;;;;-5.44;73.27;93894.13;5047662;28;20044;-42
2022/03/01 04:48:57;;;;;;;45.47;25.05;;;;;;;-5.50;73.53;93887.78;5047249;28;20029;-42
2022/03/01 04:51:22;;;;;;;28.55;15.20;;;;;;;-5.34;74.00;93896.88;5047883;28;20028;-43
2022/03/01 04:53:49;;;;;;;26.98;13.70;;;;;;;-5.46;74.41;93898.44;5047561;28;20104;-42
2022/03/01 04:56:14;;;;;;;25.52;12.40;;;;;;;-5.27;73.30;93896.63;5047551;28;20058;-42
2022/03/01 04:58:40;;;;;;;23.52;15.07;;;;;;;-5.19;72.57;93890.56;5047832;28;20024;-42
2022/03/01 05:01:05;;;;;;;28.10;15.77;;;;;;;-5.24;72.83;93891.13;5047431;28;20048;-42
2022/03/01 05:03:31;;;;;;;30.48;15.45;;;;;;;-5.24;73.00;93890.41;5047503;28;20021;-42
2022/03/01 05:05:56;;;;;;;30.70;17.77;;;;;;;-5.38;73.01;93878.16;5047426;28;20025;-43
2022/03/01 05:08:21;;;;;;;28.20;15.77;;;;;;;-5.40;73.25;93891.31;5047688;28;20021;-42
2022/03/01 05:10:47;;;;;;;29.17;17.00;;;;;;;-5.30;73.64;93898.25;5047342;28;20024;-42
2022/03/01 05:13:12;;;;;;;30.85;16.55;;;;;;;-5.31;73.15;93893.31;5047486;28;20029;-42
2022/03/01 05:15:38;;;;;;;38.10;18.58;;;;;;;-5.37;73.14;93899.25;5046065;28;20029;-42
2022/03/01 05:18:03;;;;;;;30.60;17.30;;;;;;;-5.50;73.80;93898.53;5047036;28;20513;-42
2022/03/01 05:20:29;;;;;;;40.10;19.83;;;;;;;-5.40;73.58;93904.75;5047284;28;20090;-42
2022/03/01 05:22:55;;;;;;;23.20;12.98;;;;;;;-5.37;72.59;93898.50;5047128;28;20065;-42
2022/03/01 05:25:22;;;;;;;20.52;12.73;;;;;;;-5.30;72.68;93898.25;5047473;28;20028;-42
2022/03/01 05:27:49;;;;;;;16.73;10.18;;;;;;;-5.32;73.27;93906.03;5046979;28;20531;-42
2022/03/01 05:30:16;;;;;;;17.23;8.98;;;;;;;-5.25;72.83;93900.41;5047455;28;20054;-42
2022/03/01 05:32:46;;;;;;;28.05;11.48;;;;;;;-5.12;73.79;93906.50;5046969;28;20054;-42
2022/03/01 05:35:13;;;;;;;32.05;16.73;;;;;;;-4.99;73.79;93909.88;5046968;28;20029;-42
2022/03/01 05:37:39;;;;;;;43.50;22.45;;;;;;;-4.97;73.99;93904.81;5047370;28;20146;-43
2022/03/01 05:40:06;;;;;;;83.43;35.00;;;;;;;-4.74;73.62;93909.72;5046652;27;20020;-43
2022/03/01 05:42:32;;;;;;;47.75;22.40;;;;;;;-5.01;72.36;93904.19;5045983;28;20017;-42
2022/03/01 05:44:59;;;;;;;69.47;32.10;;;;;;;-4.74;73.53;93904.34;5046937;28;20033;-42
2022/03/01 05:47:26;;;;;;;60.60;25.40;;;;;;;-4.53;72.10;93912.84;5046868;28;20528;-43
2022/03/01 05:49:52;;;;;;;49.40;24.50;;;;;;;-4.62;72.13;93917.00;5046812;28;20418;-42
2022/03/01 05:52:17;;;;;;;125.28;52.55;;;;;;;-4.58;72.84;93916.13;5046754;28;20391;-42
2022/03/01 05:54:43;;;;;;;164.38;65.97;;;;;;;-4.38;72.51;93921.91;5046781;28;20021;-43
2022/03/01 05:57:08;;;;;;;54.65;26.08;;;;;;;-4.37;71.36;93931.50;5047021;28;20049;-43
2022/03/01 05:59:34;;;;;;;39.15;20.38;;;;;;;-4.23;71.31;93934.44;5047105;28;20405;-42
2022/03/01 06:01:59;;;;;;;38.10;20.00;;;;;;;-4.17;71.73;93934.59;5050258;28;20413;-42
2022/03/01 06:04:25;;;;;;;52.53;25.40;;;;;;;-4.24;71.80;93918.69;5050257;28;20013;-42
2022/03/01 06:06:50;;;;;;;71.28;32.60;;;;;;;-3.96;72.60;93931.09;5050137;28;20025;-42
2022/03/01 06:09:16;;;;;;;79.38;36.38;;;;;;;-3.87;72.73;93925.72;5050088;28;20021;-42
2022/03/01 06:11:41;;;;;;;70.65;29.77;;;;;;;-3.96;73.32;93933.78;5050021;28;20040;-42
2022/03/01 06:14:07;;;;;;;63.45;30.13;;;;;;;-3.80;71.70;93925.47;5050189;28;20021;-42
2022/03/01 06:16:32;;;;;;;62.33;31.10;;;;;;;-3.60;71.92;93942.00;5049942;28;20117;-42
2022/03/01 06:18:58;;;;;;;67.43;35.13;;;;;;;-3.39;72.49;93937.69;5050253;28;20044;-42
2022/03/01 06:21:24;;;;;;;63.80;31.20;;;;;;;-3.51;72.16;93950.09;5050213;28;20425;-42
2022/03/01 06:23:49;;;;;;;52.90;26.33;;;;;;;-3.22;72.00;93942.38;5049882;28;20029;-43
2022/03/01 06:26:15;;;;;;;76.93;34.00;;;;;;;-2.93;71.55;93936.53;5049715;28;20021;-42
2022/03/01 06:28:41;;;;;;;77.32;37.30;;;;;;;-2.65;71.13;93931.88;5049880;28;20025;-43
2022/03/01 06:31:06;;;;;;;81.22;37.20;;;;;;;-2.34;70.56;93929.72;5049836;28;20027;-43
2022/03/01 06:33:32;;;;;;;71.35;31.48;;;;;;;-2.04;68.45;93931.44;5049916;28;20025;-42
2022/03/01 06:35:57;;;;;;;103.72;43.67;;;;;;;-1.92;68.85;93892.59;5049704;28;20025;-42
2022/03/01 06:38:22;;;;;;;68.35;35.83;;;;;;;-1.47;67.92;93924.09;5050030;28;20025;-43
2022/03/01 06:40:48;;;;;;;60.67;28.38;;;;;;;-1.25;67.26;93921.88;5049369;28;20033;-42
2022/03/01 06:43:13;;;;;;;44.83;24.55;;;;;;;-1.03;67.35;93929.72;5049659;28;20088;-42
2022/03/01 06:45:39;;;;;;;55.30;29.30;;;;;;;-0.73;66.26;93931.28;5049911;28;20033;-42
2022/03/01 06:48:04;;;;;;;66.93;29.50;;;;;;;-0.54;65.27;93935.34;5049758;28;20024;-42
2022/03/01 06:50:30;;;;;;;60.83;32.72;;;;;;;-0.33;64.62;93928.84;5049867;28;20029;-42
2022/03/01 06:52:55;;;;;;;32.88;17.92;;;;;;;-0.11;63.69;93931.91;5049692;28;20403;-42
2022/03/01 06:55:24;;;;;;;30.08;17.02;;;;;;;-0.01;63.12;93930.59;5049772;28;20040;-42
2022/03/01 06:57:49;;;;;;;32.80;16.80;;;;;;;0.04;64.04;93931.91;5049730;28;20037;-42
2022/03/01 07:00:16;;;;;;;31.90;18.50;;;;;;;0.37;63.61;93927.00;5049627;28;20036;-42
2022/03/01 07:02:42;;;;;;;36.88;20.48;;;;;;;0.58;62.43;93933.22;5049316;28;20021;-42
2022/03/01 07:05:10;;;;;;;49.25;30.27;;;;;;;0.72;61.63;93919.59;5049549;28;20048;-42
2022/03/01 07:07:36;;;;;;;47.30;27.17;;;;;;;0.61;61.96;93932.28;5041405;28;20028;-42
2022/03/01 07:10:03;;;;;;;56.42;26.63;;;;;;;0.84;61.71;93923.22;5027218;28;20108;-42
2022/03/01 07:12:28;;;;;;;34.33;19.17;;;;;;;0.96;61.27;93922.13;5026849;28;20037;-42
2022/03/01 07:14:54;;;;;;;17.77;11.40;;;;;;;1.14;62.22;93927.31;5026124;28;20026;-42
2022/03/01 07:17:20;;;;;;;20.40;14.82;;;;;;;1.35;60.92;93919.88;5032113;27;20029;-42
2022/03/01 07:19:47;;;;;;;22.95;13.48;;;;;;;1.55;58.90;93919.84;5152064;27;20495;-42
2022/03/01 07:22:12;;;;;;;16.20;8.60;;;;;;;1.68;56.46;93917.50;5151610;27;20026;-42
2022/03/01 07:24:38;;;;;;;4.93;3.72;;;;;;;1.92;55.28;93922.69;5151969;27;20030;-42
2022/03/01 07:27:03;;;;;;;24.40;7.00;;;;;;;2.37;55.84;93930.00;5151403;27;20050;-42
2022/03/01 07:29:30;;;;;;;33.53;15.18;;;;;;;2.68;56.04;93926.50;5151494;27;20659;-42
2022/03/01 07:31:57;;;;;;;23.45;11.77;;;;;;;2.98;55.41;93924.94;5151630;27;20388;-42
2022/03/01 07:34:22;;;;;;;28.13;10.73;;;;;;;3.22;55.19;93927.28;5091379;27;20022;-42
2022/03/01 07:36:49;;;;;;;21.48;9.48;;;;;;;3.35;53.37;93922.88;5030188;28;20395;-42
2022/03/01 07:39:14;;;;;;;29.08;13.85;;;;;;;3.37;53.01;93927.84;5049017;28;20032;-42
2022/03/01 07:41:40;;;;;;;8.10;5.28;;;;;;;3.62;51.88;93918.72;5041320;28;20040;-42
2022/03/01 07:44:05;;;;;;;7.45;5.05;;;;;;;3.75;50.69;93917.03;5047102;28;20077;-42
2022/03/01 07:46:31;;;;;;;9.00;4.55;;;;;;;3.69;50.54;93915.53;5047922;28;20025;-42
2022/03/01 07:48:56;;;;;;;6.60;4.78;;;;;;;3.93;50.08;93913.09;5048213;28;20025;-42
2022/03/01 07:51:22;;;;;;;8.73;4.82;;;;;;;4.12;49.43;93905.16;5048568;28;20463;-42
2022/03/01 07:53:47;;;;;;;5.95;4.65;;;;;;;4.21;50.91;93908.41;5047288;28;20032;-42
2022/03/01 07:56:14;;;;;;;7.20;5.35;;;;;;;4.49;49.86;93908.41;5046858;28;20049;-42
2022/03/01 07:58:39;;;;;;;10.52;5.30;;;;;;;4.80;50.25;93899.91;5046609;28;20032;-42
2022/03/01 08:01:06;;;;;;;7.65;5.60;;;;;;;5.10;47.51;93911.78;5046071;28;20052;-42
2022/03/01 08:03:32;;;;;;;8.38;5.38;;;;;;;6.45;47.30;93910.59;5046800;28;20021;-42
2022/03/01 08:05:57;;;;;;;20.27;5.47;;;;;;;8.23;40.68;93910.81;5046853;28;20021;-42
2022/03/01 08:08:23;;;;;;;6.32;4.97;;;;;;;10.12;38.23;93905.44;5047203;28;20693;-42
2022/03/01 08:10:52;;;;;;;9.73;6.43;;;;;;;11.34;34.80;93908.75;5048607;28;20451;-42
2022/03/01 08:13:17;;;;;;;7.13;5.38;;;;;;;11.11;33.20;93907.13;5048213;28;20029;-42
2022/03/01 08:15:43;;;;;;;6.43;5.22;;;;;;;10.61;34.40;93919.38;5048174;28;20112;-42
2022/03/01 08:18:08;;;;;;;11.68;7.65;;;;;;;10.29;33.93;93916.84;5048114;28;20025;-42
2022/03/01 08:20:34;;;;;;;17.88;6.45;;;;;;;9.64;34.44;93909.41;5048420;28;20029;-42
2022/03/01 08:22:59;;;;;;;5.75;4.78;;;;;;;9.10;35.58;93918.19;5047292;28;20028;-42
2022/03/01 08:25:25;;;;;;;5.53;4.35;;;;;;;8.40;36.81;93922.34;5048053;28;20029;-42
2022/03/01 08:27:50;;;;;;;813.42;415.20;;;;;;;6.83;37.64;93926.72;5047864;28;20060;-42
2022/03/01 08:30:17;;;;;;;683.60;339.58;;;;;;;6.32;39.14;93926.91;5048225;28;20037;-42
2022/03/01 08:32:43;;;;;;;1593.45;698.40;;;;;;;5.61;42.23;93932.25;5047844;28;20029;-42
2022/03/01 08:35:09;;;;;;;220.07;93.45;;;;;;;4.82;43.03;93927.50;5048178;28;20020;-42
2022/03/01 08:37:34;;;;;;;71.78;31.10;;;;;;;4.07;44.16;93931.22;5047896;28;20024;-42
2022/03/01 08:40:00;;;;;;;956.15;471.02;;;;;;;3.80;46.47;93937.41;5047764;28;20031;-42
2022/03/01 08:42:25;;;;;;;23.13;14.32;;;;;;;3.44;46.64;93941.78;5048070;28;20086;-42
2022/03/01 08:44:51;;;;;;;182.93;70.53;;;;;;;3.01;48.79;93932.88;5048143;28;20402;-42
2022/03/01 08:47:16;;;;;;;14.40;9.15;;;;;;;3.12;49.44;93943.09;5047771;28;20497;-42
2022/03/01 08:49:42;;;;;;;292.48;99.97;;;;;;;2.78;48.45;93950.34;5048026;28;20025;-42
2022/03/01 08:52:07;;;;;;;156.27;56.10;;;;;;;2.49;49.55;93944.47;5047953;28;20021;-43
2022/03/01 08:54:32;;;;;;;300.65;116.63;;;;;;;2.18;49.65;93951.41;5047477;28;20032;-42
2022/03/01 08:56:58;;;;;;;8.85;5.32;;;;;;;2.05;50.73;93953.00;5047936;28;20017;-42
2022/03/01 08:59:25;;;;;;;61.38;21.23;;;;;;;1.54;52.55;93957.19;5046372;28;20056;-42
2022/03/01 09:01:50;;;;;;;404.63;142.45;;;;;;;1.56;53.18;93937.66;5047627;28;20112;-43
2022/03/01 09:04:16;;;;;;;348.52;139.43;;;;;;;1.84;52.51;93962.47;5032082;28;20053;-42
2022/03/01 09:06:41;;;;;;;41.03;19.45;;;;;;;1.94;53.69;93956.38;5027591;28;20182;-42
2022/03/01 09:09:07;;;;;;;7.00;4.80;;;;;;;2.00;52.94;93959.13;5027823;28;20033;-42
2022/03/01 09:11:32;;;;;;;7.97;5.75;;;;;;;2.24;52.83;93960.34;5027758;28;20036;-43
2022/03/01 09:13:58;;;;;;;7.05;4.97;;;;;;;2.49;52.01;93961.53;5027723;28;20025;-42
2022/03/01 09:16:23;;;;;;;7.05;5.00;;;;;;;2.66;51.14;93956.22;5027766;28;20391;-43
2022/03/01 09:18:49;;;;;;;8.13;5.55;;;;;;;2.94;51.46;93947.00;5109134;27;20014;-43
2022/03/01 09:21:14;;;;;;;7.05;5.57;;;;;;;4.16;49.52;93952.84;5151688;27;20487;-42
2022/03/01 09:23:41;;;;;;;8.68;6.38;;;;;;;4.69;47.84;93945.69;5151094;27;20551;-43
2022/03/01 09:26:07;;;;;;;17.48;8.23;;;;;;;5.59;44.86;93942.97;5151844;27;20562;-42
2022/03/01 09:28:32;;;;;;;10.48;7.72;;;;;;;6.41;43.67;93949.25;5151306;27;20065;-42
2022/03/01 09:30:58;;;;;;;41.10;19.08;;;;;;;7.73;40.58;93945.75;5150941;27;20567;-42
2022/03/01 09:33:23;;;;;;;20.17;12.27;;;;;;;8.59;37.89;93943.59;5151160;27;20027;-42
2022/03/01 09:35:49;;;;;;;9.88;7.13;;;;;;;9.14;36.72;93940.66;5154609;27;20397;-42
2022/03/01 09:38:14;;;;;;;13.40;8.73;;;;;;;9.88;36.67;93944.28;5154640;27;20037;-42
2022/03/01 09:40:40;;;;;;;8.18;6.00;;;;;;;10.83;33.06;93942.97;5101718;27;20025;-42
2022/03/01 09:43:06;;;;;;;7.22;5.78;;;;;;;10.67;32.35;93939.31;5049414;28;20505;-42
2022/03/01 09:45:31;;;;;;;5.70;5.10;;;;;;;10.42;33.37;93941.63;5047997;28;20037;-42
2022/03/01 09:47:57;;;;;;;8.82;6.15;;;;;;;10.11;32.42;93947.34;5049021;28;20025;-42
2022/03/01 09:50:27;;;;;;;9.93;7.43;;;;;;;10.90;32.43;93934.00;5049124;28;20064;-42
2022/03/01 09:53:03;;;;;;;6.07;4.43;;;;;;;11.20;31.92;93948.81;5049318;28;20112;-42
2022/03/01 09:55:29;;;;;;;6.15;4.20;;;;;;;12.28;29.57;93938.59;5049392;28;20034;-42
2022/03/01 09:57:56;;;;;;;4.85;4.35;;;;;;;11.84;29.63;93942.66;5048926;28;20108;-43
2022/03/01 10:00:22;;;;;;;8.52;4.95;;;;;;;10.43;30.31;93929.34;5048968;28;20528;-43
2022/03/01 10:02:54;;;;;;;6.40;4.82;;;;;;;9.88;33.00;93931.22;5049242;28;20021;-43
2022/03/01 10:05:34;;;;;;;4.45;4.00;;;;;;;10.31;30.58;93928.09;5048944;28;20037;-43
2022/03/01 10:08:11;;;;;;;5.13;4.05;;;;;;;9.88;31.51;93925.72;5049012;28;20028;-42
2022/03/01 10:10:44;;;;;;;3.85;3.45;;;;;;;10.02;32.14;93920.94;5048963;28;20036;-42
2022/03/01 10:13:13;;;;;;;9.23;6.65;;;;;;;9.40;33.23;93917.16;5048873;28;20025;-42
2022/03/01 10:15:39;;;;;;;11.40;6.25;;;;;;;8.97;35.56;93914.66;5049110;28;20100;-42
2022/03/01 10:18:15;;;;;;;5.43;4.68;;;;;;;8.19;36.09;93915.13;5085541;27;20114;-42
2022/03/01 10:20:44;;;;;;;8.70;5.88;;;;;;;7.47;37.95;93921.59;5154060;27;20167;-42
2022/03/01 10:23:11;;;;;;;7.95;6.15;;;;;;;7.11;40.10;93909.97;5154330;27;20460;-42
2022/03/01 10:25:39;;;;;;;5.90;5.20;;;;;;;6.65;41.09;93918.38;5153015;27;20039;-42
2022/03/01 10:28:06;;;;;;;14.15;5.25;;;;;;;5.94;41.18;93920.41;5114405;27;1128514;-42
2022/03/01 10:30:33;;;;;;;6.13;5.05;;;;;;;5.14;42.85;93909.53;5155434;27;20061;-42
2022/03/01 10:33:08;;;;;;;6.32;4.88;;;;;;;4.98;43.29;93915.06;5155365;27;20486;-42
2022/03/01 10:35:35;;;;;;;6.63;4.88;;;;;;;4.81;44.20;93912.34;5155071;27;20500;-42
2022/03/01 10:38:02;;;;;;;5.93;4.70;;;;;;;4.60;45.22;93917.34;5155127;27;20487;-42
2022/03/01 10:40:28;;;;;;;5.97;4.78;;;;;;;4.28;45.32;93904.44;5122132;27;20031;-42
2022/03/01 10:43:12;;;;;;;6.97;4.47;;;;;;;4.01;45.46;93903.16;5048858;28;20021;-42
2022/03/01 10:45:50;;;;;;;6.25;4.57;;;;;;;3.78;46.81;93896.19;5049323;28;20085;-42
2022/03/01 10:48:34;;;;;;;6.28;4.97;;;;;;;3.76;46.61;93893.22;5049565;28;20021;-42
2022/03/01 10:51:02;;;;;;;8.95;4.40;;;;;;;3.82;46.61;93888.50;5049869;28;20044;-42
2022/03/01 10:53:46;;;;;;;8.02;5.32;;;;;;;3.55;48.10;93900.84;5049743;28;20100;-42
2022/03/01 10:56:13;;;;;;;6.80;4.88;;;;;;;3.49;48.75;93889.16;5048128;28;20052;-42
2022/03/01 10:58:40;;;;;;;6.05;4.90;;;;;;;3.66;48.13;93887.22;5048244;28;20024;-42
2022/03/01 11:01:07;;;;;;;5.30;4.57;;;;;;;3.67;46.00;93885.25;5049342;28;20498;-42
2022/03/01 11:03:32;;;;;;;4.93;4.10;;;;;;;3.76;46.93;93887.75;5049375;28;20021;-42
2022/03/01 11:05:58;;;;;;;7.80;4.70;;;;;;;3.89;47.44;93882.56;5049261;28;20029;-42
2022/03/01 11:08:35;;;;;;;6.18;4.10;;;;;;;3.80;45.54;93875.34;5049171;28;20032;-42
2022/03/01 11:11:03;;;;;;;6.22;4.93;;;;;;;4.10;46.47;93878.34;5049277;28;20576;-42
2022/03/01 11:13:48;;;;;;;8.35;5.70;;;;;;;4.38;46.92;93868.16;5049173;28;20157;-42
2022/03/01 11:16:21;;;;;;;5.15;4.35;;;;;;;4.46;47.03;93871.84;5049100;28;20560;-42
2022/03/01 11:19:18;;;;;;;6.88;4.88;;;;;;;4.70;46.28;93873.34;5048145;28;20028;-42
2022/03/01 11:21:46;;;;;;;9.55;5.75;;;;;;;4.53;47.23;93841.28;5048124;28;20085;-43
2022/03/01 11:24:14;;;;;;;6.10;5.00;;;;;;;4.70;46.74;93863.13;5049272;28;20021;-43
2022/03/01 11:26:40;;;;;;;7.18;4.85;;;;;;;4.58;47.23;93861.66;5049155;28;20044;-42